sensor_id;sensor_type;location;lat;lon;timestamp;pressure;altitude;pressure_sealevel;temperature;humidity
48156;BME280;35568;48.104;11.782;2023-06-10T00:01:02;95009.19;;;17.26;44.96
48156;BME280;35568;48.104;11.782;2023-06-10T00:03:29;95004.38;;;16.91;44.95
48156;BME280;35568;48.104;11.782;2023-06-10T00:05:56;95003.12;;;16.78;45.03
48156;BME280;35568;48.104;11.782;2023-06-10T00:08:23;95001.22;;;17.16;44.97
48156;BME280;35568;48.104;11.782;2023-06-10T00:10:50;95000.46;;;16.84;45.12
48156;BME280;35568;48.104;11.782;2023-06-10T00:13:17;95000.41;;;16.83;45.06
48156;BME280;35568;48.104;11.782;2023-06-10T00:15:44;95003.95;;;17.06;45.11
48156;BME280;35568;48.104;11.782;2023-06-10T00:18:11;95004.93;;;16.77;45.22
48156;BME280;35568;48.104;11.782;2023-06-10T00:20:38;95001.99;;;16.66;45.32
48156;BME280;35568;48.104;11.782;2023-06-10T00:23:05;94998.84;;;16.86;45.43
48156;BME280;35568;48.104;11.782;2023-06-10T00:25:31;95002.21;;;16.78;45.52
48156;BME280;35568;48.104;11.782;2023-06-10T00:27:58;95005.16;;;16.52;45.52
48156;BME280;35568;48.104;11.782;2023-06-10T00:30:25;95008.23;;;16.76;45.46
48156;BME280;35568;48.104;11.782;2023-06-10T00:32:52;95005.43;;;16.87;45.66
48156;BME280;35568;48.104;11.782;2023-06-10T00:35:19;95007.66;;;16.35;45.92
48156;BME280;35568;48.104;11.782;2023-06-10T00:37:45;95009.29;;;16.63;45.82
48156;BME280;35568;48.104;11.782;2023-06-10T00:40:12;95012.13;;;16.60;45.92
48156;BME280;35568;48.104;11.782;2023-06-10T00:42:39;95009.52;;;16.63;45.96
48156;BME280;35568;48.104;11.782;2023-06-10T00:45:07;95013.38;;;16.13;45.97
48156;BME280;35568;48.104;11.782;2023-06-10T00:47:34;95014.48;;;16.14;46.09
48156;BME280;35568;48.104;11.782;2023-06-10T00:50:01;95011.97;;;16.57;46.06
48156;BME280;35568;48.104;11.782;2023-06-10T00:52:29;95010.42;;;16.24;46.08
48156;BME280;35568;48.104;11.782;2023-06-10T00:54:57;95014.15;;;16.46;46.24
48156;BME280;35568;48.104;11.782;2023-06-10T00:57:24;95009.42;;;16.43;46.20
48156;BME280;35568;48.104;11.782;2023-06-10T00:59:51;95008.69;;;16.30;46.39
48156;BME280;35568;48.104;11.782;2023-06-10T01:02:18;95009.63;;;15.84;47.24
48156;BME280;35568;48.104;11.782;2023-06-10T01:04:46;95011.41;;;15.91;47.06
48156;BME280;35568;48.104;11.782;2023-06-10T01:07:20;95011.12;;;15.86;47.00
48156;BME280;35568;48.104;11.782;2023-06-10T01:09:55;95010.60;;;15.76;47.19
48156;BME280;35568;48.104;11.782;2023-06-10T01:12:31;95015.20;;;15.92;46.84
48156;BME280;35568;48.104;11.782;2023-06-10T01:15:00;95010.65;;;15.86;47.15
48156;BME280;35568;48.104;11.782;2023-06-10T01:17:28;95010.51;;;15.86;47.56
48156;BME280;35568;48.104;11.782;2023-06-10T01:19:56;95010.51;;;15.83;47.40
48156;BME280;35568;48.104;11.782;2023-06-10T01:22:23;95011.82;;;15.80;47.33
48156;BME280;35568;48.104;11.782;2023-06-10T01:24:50;95009.99;;;16.01;47.37
48156;BME280;35568;48.104;11.782;2023-06-10T01:27:19;95014.03;;;15.88;47.23
48156;BME280;35568;48.104;11.782;2023-06-10T01:29:53;95016.43;;;15.86;47.25
48156;BME280;35568;48.104;11.782;2023-06-10T01:32:25;95015.97;;;15.53;47.68
48156;BME280;35568;48.104;11.782;2023-06-10T01:34:54;95016.38;;;15.50;48.25
48156;BME280;35568;48.104;11.782;2023-06-10T01:37:24;95015.81;;;15.70;48.29
48156;BME280;35568;48.104;11.782;2023-06-10T01:39:55;95014.55;;;15.52;48.03
48156;BME280;35568;48.104;11.782;2023-06-10T01:42:24;95014.07;;;15.41;48.57
48156;BME280;35568;48.104;11.782;2023-06-10T01:44:52;95010.87;;;15.27;48.48
48156;BME280;35568;48.104;11.782;2023-06-10T01:47:19;95012.13;;;15.33;48.44
48156;BME280;35568;48.104;11.782;2023-06-10T01:49:46;95012.32;;;15.66;48.51
48156;BME280;35568;48.104;11.782;2023-06-10T01:52:13;95016.19;;;15.37;48.03
48156;BME280;35568;48.104;11.782;2023-06-10T01:54:41;95017.04;;;15.40;48.38
48156;BME280;35568;48.104;11.782;2023-06-10T01:57:08;95020.73;;;15.44;48.39
48156;BME280;35568;48.104;11.782;2023-06-10T01:59:35;95021.46;;;15.36;48.31
48156;BME280;35568;48.104;11.782;2023-06-10T02:02:02;95022.68;;;15.44;48.57
48156;BME280;35568;48.104;11.782;2023-06-10T02:04:28;95021.10;;;15.34;48.56
48156;BME280;35568;48.104;11.782;2023-06-10T02:06:56;95023.40;;;15.51;48.97
48156;BME280;35568;48.104;11.782;2023-06-10T02:09:22;95020.67;;;15.08;49.23
48156;BME280;35568;48.104;11.782;2023-06-10T02:11:49;95022.85;;;15.11;48.53
48156;BME280;35568;48.104;11.782;2023-06-10T02:14:16;95026.25;;;15.16;48.36
48156;BME280;35568;48.104;11.782;2023-06-10T02:16:44;95021.48;;;15.28;48.47
48156;BME280;35568;48.104;11.782;2023-06-10T02:19:10;95019.38;;;15.26;49.22
48156;BME280;35568;48.104;11.782;2023-06-10T02:21:37;95016.88;;;15.03;49.52
48156;BME280;35568;48.104;11.782;2023-06-10T02:24:05;95019.92;;;14.76;50.04
48156;BME280;35568;48.104;11.782;2023-06-10T02:26:32;95018.70;;;14.83;50.01
48156;BME280;35568;48.104;11.782;2023-06-10T02:28:59;95016.50;;;14.97;49.44
48156;BME280;35568;48.104;11.782;2023-06-10T02:31:26;95019.99;;;14.96;49.41
48156;BME280;35568;48.104;11.782;2023-06-10T02:33:53;95019.70;;;14.96;49.71
48156;BME280;35568;48.104;11.782;2023-06-10T02:36:20;95019.18;;;14.95;49.44
48156;BME280;35568;48.104;11.782;2023-06-10T02:38:47;95019.85;;;14.94;49.83
48156;BME280;35568;48.104;11.782;2023-06-10T02:41:14;95021.51;;;15.38;49.96
48156;BME280;35568;48.104;11.782;2023-06-10T02:43:42;95018.25;;;14.43;50.56
48156;BME280;35568;48.104;11.782;2023-06-10T02:46:08;95022.62;;;14.33;50.80
48156;BME280;35568;48.104;11.782;2023-06-10T02:48:41;95023.08;;;14.37;50.85
48156;BME280;35568;48.104;11.782;2023-06-10T02:51:08;95020.95;;;14.67;50.60
48156;BME280;35568;48.104;11.782;2023-06-10T02:53:35;95020.52;;;14.75;50.36
48156;BME280;35568;48.104;11.782;2023-06-10T02:56:02;95022.19;;;14.70;49.81
48156;BME280;35568;48.104;11.782;2023-06-10T02:58:29;95022.55;;;14.59;49.68
48156;BME280;35568;48.104;11.782;2023-06-10T03:03:01;95023.44;;;14.76;48.86
48156;BME280;35568;48.104;11.782;2023-06-10T03:05:28;95026.51;;;14.61;49.19
48156;BME280;35568;48.104;11.782;2023-06-10T03:07:55;95026.87;;;14.62;49.96
48156;BME280;35568;48.104;11.782;2023-06-10T03:10:22;95026.66;;;14.45;49.96
48156;BME280;35568;48.104;11.782;2023-06-10T03:12:48;95032.80;;;14.42;49.59
48156;BME280;35568;48.104;11.782;2023-06-10T03:15:15;95039.74;;;14.44;49.48
48156;BME280;35568;48.104;11.782;2023-06-10T03:17:42;95044.74;;;14.64;49.54
48156;BME280;35568;48.104;11.782;2023-06-10T03:20:10;95047.12;;;14.37;49.59
48156;BME280;35568;48.104;11.782;2023-06-10T03:22:36;95045.72;;;14.76;49.78
48156;BME280;35568;48.104;11.782;2023-06-10T03:25:04;95046.23;;;14.56;49.92
48156;BME280;35568;48.104;11.782;2023-06-10T03:27:31;95046.07;;;14.36;49.71
48156;BME280;35568;48.104;11.782;2023-06-10T03:29:58;95050.49;;;14.19;50.30
48156;BME280;35568;48.104;11.782;2023-06-10T03:32:26;95050.46;;;14.31;50.70
48156;BME280;35568;48.104;11.782;2023-06-10T03:34:52;95057.43;;;14.19;50.57
48156;BME280;35568;48.104;11.782;2023-06-10T03:37:19;95059.37;;;14.48;50.50
48156;BME280;35568;48.104;11.782;2023-06-10T03:39:46;95057.78;;;14.83;50.55
48156;BME280;35568;48.104;11.782;2023-06-10T03:42:13;95055.64;;;14.44;50.81
48156;BME280;35568;48.104;11.782;2023-06-10T03:44:40;95059.51;;;14.44;50.85
48156;BME280;35568;48.104;11.782;2023-06-10T03:47:07;95057.12;;;14.55;51.28
48156;BME280;35568;48.104;11.782;2023-06-10T03:49:34;95062.14;;;14.26;51.06
48156;BME280;35568;48.104;11.782;2023-06-10T03:52:00;95065.81;;;14.54;50.57
48156;BME280;35568;48.104;11.782;2023-06-10T03:54:27;95064.08;;;14.45;50.31
48156;BME280;35568;48.104;11.782;2023-06-10T03:56:54;95069.05;;;14.49;50.29
48156;BME280;35568;48.104;11.782;2023-06-10T03:59:21;95068.67;;;14.45;50.41
48156;BME280;35568;48.104;11.782;2023-06-10T04:01:48;95071.84;;;14.68;50.59
48156;BME280;35568;48.104;11.782;2023-06-10T04:04:14;95070.53;;;14.79;50.56
48156;BME280;35568;48.104;11.782;2023-06-10T04:06:41;95071.11;;;14.85;50.19
48156;BME280;35568;48.104;11.782;2023-06-10T04:09:08;95073.82;;;14.98;49.92
48156;BME280;35568;48.104;11.782;2023-06-10T04:11:36;95075.64;;;15.09;49.54
48156;BME280;35568;48.104;11.782;2023-06-10T04:14:02;95082.05;;;15.24;49.94
48156;BME280;35568;48.104;11.782;2023-06-10T04:16:30;95083.44;;;15.40;49.98
48156;BME280;35568;48.104;11.782;2023-06-10T04:18:58;95081.65;;;15.54;49.97
48156;BME280;35568;48.104;11.782;2023-06-10T04:21:25;95082.77;;;15.69;50.03
48156;BME280;35568;48.104;11.782;2023-06-10T04:23:52;95080.65;;;15.77;50.19
48156;BME280;35568;48.104;11.782;2023-06-10T04:26:19;95078.39;;;15.65;50.07
48156;BME280;35568;48.104;11.782;2023-06-10T04:28:46;95083.59;;;15.72;50.14
48156;BME280;35568;48.104;11.782;2023-06-10T04:31:13;95089.69;;;15.64;49.96
48156;BME280;35568;48.104;11.782;2023-06-10T04:33:40;95093.90;;;15.72;50.08
48156;BME280;35568;48.104;11.782;2023-06-10T04:36:07;95099.67;;;15.93;49.73
48156;BME280;35568;48.104;11.782;2023-06-10T04:38:34;95100.57;;;16.10;49.59
48156;BME280;35568;48.104;11.782;2023-06-10T04:41:01;95098.18;;;16.24;49.54
48156;BME280;35568;48.104;11.782;2023-06-10T04:43:30;95094.39;;;16.57;49.47
48156;BME280;35568;48.104;11.782;2023-06-10T04:45:57;95094.92;;;16.65;48.98
48156;BME280;35568;48.104;11.782;2023-06-10T04:48:24;95096.19;;;16.92;48.69
48156;BME280;35568;48.104;11.782;2023-06-10T04:50:51;95098.58;;;17.05;48.68
48156;BME280;35568;48.104;11.782;2023-06-10T04:53:18;95098.85;;;17.11;48.73
48156;BME280;35568;48.104;11.782;2023-06-10T04:55:45;95099.50;;;17.00;48.57
48156;BME280;35568;48.104;11.782;2023-06-10T04:58:13;95102.78;;;17.48;48.30
48156;BME280;35568;48.104;11.782;2023-06-10T05:00:40;95098.15;;;17.20;47.77
48156;BME280;35568;48.104;11.782;2023-06-10T05:03:07;95096.43;;;17.44;47.65
48156;BME280;35568;48.104;11.782;2023-06-10T05:05:34;95097.50;;;17.44;47.84
48156;BME280;35568;48.104;11.782;2023-06-10T05:08:01;95096.55;;;17.70;47.95
48156;BME280;35568;48.104;11.782;2023-06-10T05:10:28;95098.78;;;17.95;47.50
48156;BME280;35568;48.104;11.782;2023-06-10T05:12:55;95100.54;;;18.11;47.24
48156;BME280;35568;48.104;11.782;2023-06-10T05:15:21;95099.06;;;18.37;47.17
48156;BME280;35568;48.104;11.782;2023-06-10T05:17:48;95096.80;;;18.26;46.98
48156;BME280;35568;48.104;11.782;2023-06-10T05:20:15;95098.68;;;18.65;46.66
48156;BME280;35568;48.104;11.782;2023-06-10T05:22:43;95101.22;;;18.70;46.81
48156;BME280;35568;48.104;11.782;2023-06-10T05:25:10;95102.70;;;18.75;45.81
48156;BME280;35568;48.104;11.782;2023-06-10T05:27:37;95104.32;;;19.13;45.68
48156;BME280;35568;48.104;11.782;2023-06-10T05:30:05;95102.92;;;19.25;45.46
48156;BME280;35568;48.104;11.782;2023-06-10T05:32:32;95104.65;;;19.10;45.47
48156;BME280;35568;48.104;11.782;2023-06-10T05:35:00;95106.15;;;19.28;45.42
48156;BME280;35568;48.104;11.782;2023-06-10T05:37:26;95104.29;;;19.41;45.35
48156;BME280;35568;48.104;11.782;2023-06-10T05:39:54;95104.76;;;19.76;44.85
48156;BME280;35568;48.104;11.782;2023-06-10T05:42:20;95101.91;;;19.84;44.32
48156;BME280;35568;48.104;11.782;2023-06-10T05:44:47;95104.36;;;19.90;44.33
48156;BME280;35568;48.104;11.782;2023-06-10T05:47:14;95105.20;;;19.96;44.42
48156;BME280;35568;48.104;11.782;2023-06-10T05:49:40;95106.49;;;20.29;44.11
48156;BME280;35568;48.104;11.782;2023-06-10T05:52:07;95106.43;;;20.28;44.05
48156;BME280;35568;48.104;11.782;2023-06-10T05:54:35;95105.14;;;20.61;43.86
48156;BME280;35568;48.104;11.782;2023-06-10T05:57:02;95107.32;;;20.58;43.70
48156;BME280;35568;48.104;11.782;2023-06-10T05:59:29;95102.52;;;21.12;43.22
48156;BME280;35568;48.104;11.782;2023-06-10T06:01:56;95101.17;;;20.90;42.97
48156;BME280;35568;48.104;11.782;2023-06-10T06:04:23;95099.26;;;21.15;42.91
48156;BME280;35568;48.104;11.782;2023-06-10T06:06:50;95099.93;;;21.67;42.06
48156;BME280;35568;48.104;11.782;2023-06-10T06:09:17;95102.18;;;21.41;42.43
48156;BME280;35568;48.104;11.782;2023-06-10T06:11:44;95103.75;;;21.69;41.84
48156;BME280;35568;48.104;11.782;2023-06-10T06:14:10;95105.27;;;21.74;41.30
48156;BME280;35568;48.104;11.782;2023-06-10T06:16:38;95106.23;;;22.18;41.21
48156;BME280;35568;48.104;11.782;2023-06-10T06:19:05;95105.91;;;21.89;41.03
48156;BME280;35568;48.104;11.782;2023-06-10T06:21:32;95105.44;;;22.00;41.19
48156;BME280;35568;48.104;11.782;2023-06-10T06:23:59;95109.28;;;22.03;40.89
48156;BME280;35568;48.104;11.782;2023-06-10T06:26:26;95105.72;;;22.59;39.72
48156;BME280;35568;48.104;11.782;2023-06-10T06:28:54;95107.48;;;22.79;38.97
48156;BME280;35568;48.104;11.782;2023-06-10T06:31:20;95111.45;;;23.22;38.89
48156;BME280;35568;48.104;11.782;2023-06-10T06:33:47;95108.23;;;23.42;38.26
48156;BME280;35568;48.104;11.782;2023-06-10T06:36:15;95105.24;;;23.33;38.58
48156;BME280;35568;48.104;11.782;2023-06-10T06:38:41;95105.96;;;23.62;38.14
48156;BME280;35568;48.104;11.782;2023-06-10T06:41:09;95106.72;;;23.82;37.86
48156;BME280;35568;48.104;11.782;2023-06-10T06:43:36;95105.10;;;23.94;37.27
48156;BME280;35568;48.104;11.782;2023-06-10T06:46:03;95108.02;;;24.39;36.99
48156;BME280;35568;48.104;11.782;2023-06-10T06:48:29;95108.48;;;24.28;36.37
48156;BME280;35568;48.104;11.782;2023-06-10T06:50:56;95104.02;;;24.85;35.34
48156;BME280;35568;48.104;11.782;2023-06-10T06:53:23;95101.95;;;24.17;35.78
48156;BME280;35568;48.104;11.782;2023-06-10T06:55:50;95105.42;;;24.38;35.93
48156;BME280;35568;48.104;11.782;2023-06-10T06:58:17;95106.43;;;24.83;34.97
48156;BME280;35568;48.104;11.782;2023-06-10T07:00:44;95104.06;;;25.65;34.77
48156;BME280;35568;48.104;11.782;2023-06-10T07:03:10;95104.11;;;25.27;34.49
48156;BME280;35568;48.104;11.782;2023-06-10T07:05:37;95111.38;;;25.15;33.98
48156;BME280;35568;48.104;11.782;2023-06-10T07:08:04;95105.79;;;25.61;33.44
48156;BME280;35568;48.104;11.782;2023-06-10T07:10:32;95108.64;;;25.93;33.10
48156;BME280;35568;48.104;11.782;2023-06-10T07:12:58;95109.82;;;25.87;33.21
48156;BME280;35568;48.104;11.782;2023-06-10T07:15:25;95114.98;;;25.63;33.30
48156;BME280;35568;48.104;11.782;2023-06-10T07:17:52;95115.16;;;25.11;33.42
48156;BME280;35568;48.104;11.782;2023-06-10T07:20:19;95118.82;;;24.98;34.24
48156;BME280;35568;48.104;11.782;2023-06-10T07:22:46;95113.54;;;25.49;33.51
48156;BME280;35568;48.104;11.782;2023-06-10T07:25:13;95114.38;;;26.13;32.78
48156;BME280;35568;48.104;11.782;2023-06-10T07:27:40;95114.11;;;26.33;32.16
48156;BME280;35568;48.104;11.782;2023-06-10T07:30:08;95117.64;;;26.44;31.02
48156;BME280;35568;48.104;11.782;2023-06-10T07:32:35;95116.88;;;26.71;31.18
48156;BME280;35568;48.104;11.782;2023-06-10T07:35:02;95114.59;;;27.13;30.53
48156;BME280;35568;48.104;11.782;2023-06-10T07:37:30;95115.27;;;27.13;29.95
48156;BME280;35568;48.104;11.782;2023-06-10T07:39:56;95120.25;;;27.12;29.97
48156;BME280;35568;48.104;11.782;2023-06-10T07:42:23;95121.25;;;27.32;30.25
48156;BME280;35568;48.104;11.782;2023-06-10T07:44:50;95112.64;;;27.29;29.50
48156;BME280;35568;48.104;11.782;2023-06-10T07:47:17;95114.58;;;26.91;29.56
48156;BME280;35568;48.104;11.782;2023-06-10T07:49:44;95112.68;;;27.31;29.52
48156;BME280;35568;48.104;11.782;2023-06-10T07:52:11;95113.12;;;27.58;29.54
48156;BME280;35568;48.104;11.782;2023-06-10T07:54:38;95114.20;;;28.28;28.94
48156;BME280;35568;48.104;11.782;2023-06-10T07:57:05;95111.48;;;28.49;28.44
48156;BME280;35568;48.104;11.782;2023-06-10T07:59:32;95112.60;;;27.88;28.58
48156;BME280;35568;48.104;11.782;2023-06-10T08:02:00;95109.03;;;27.66;28.56
48156;BME280;35568;48.104;11.782;2023-06-10T08:04:28;95113.41;;;27.53;28.65
48156;BME280;35568;48.104;11.782;2023-06-10T08:06:59;95109.73;;;27.78;28.21
48156;BME280;35568;48.104;11.782;2023-06-10T08:09:26;95110.76;;;27.95;28.63
48156;BME280;35568;48.104;11.782;2023-06-10T08:11:53;95111.90;;;27.83;28.30
48156;BME280;35568;48.104;11.782;2023-06-10T08:14:20;95109.85;;;28.04;28.17
48156;BME280;35568;48.104;11.782;2023-06-10T08:16:46;95108.68;;;28.50;28.21
48156;BME280;35568;48.104;11.782;2023-06-10T08:19:13;95111.59;;;28.70;27.63
48156;BME280;35568;48.104;11.782;2023-06-10T08:21:40;95114.13;;;28.56;27.88
48156;BME280;35568;48.104;11.782;2023-06-10T08:24:07;95109.09;;;28.10;28.13
48156;BME280;35568;48.104;11.782;2023-06-10T08:26:34;95111.21;;;28.51;27.93
48156;BME280;35568;48.104;11.782;2023-06-10T08:29:01;95115.30;;;27.95;28.42
48156;BME280;35568;48.104;11.782;2023-06-10T08:31:28;95111.64;;;27.62;29.04
48156;BME280;35568;48.104;11.782;2023-06-10T08:33:55;95114.68;;;26.76;29.88
48156;BME280;35568;48.104;11.782;2023-06-10T08:36:22;95113.11;;;26.33;30.47
48156;BME280;35568;48.104;11.782;2023-06-10T08:38:48;95115.94;;;26.89;30.57
48156;BME280;35568;48.104;11.782;2023-06-10T08:41:17;95114.61;;;26.88;29.92
48156;BME280;35568;48.104;11.782;2023-06-10T08:43:50;95111.04;;;27.80;28.98
48156;BME280;35568;48.104;11.782;2023-06-10T08:46:19;95115.41;;;28.23;28.77
48156;BME280;35568;48.104;11.782;2023-06-10T08:48:49;95118.06;;;29.18;27.89
48156;BME280;35568;48.104;11.782;2023-06-10T08:51:19;95116.38;;;29.90;26.50
48156;BME280;35568;48.104;11.782;2023-06-10T08:53:53;95119.62;;;30.22;26.52
48156;BME280;35568;48.104;11.782;2023-06-10T08:56:23;95119.75;;;28.92;27.56
48156;BME280;35568;48.104;11.782;2023-06-10T08:58:51;95115.33;;;28.70;27.99
48156;BME280;35568;48.104;11.782;2023-06-10T09:01:19;95107.84;;;28.52;28.14
48156;BME280;35568;48.104;11.782;2023-06-10T09:03:48;95111.77;;;28.57;27.84
48156;BME280;35568;48.104;11.782;2023-06-10T09:06:16;95110.85;;;27.77;28.81
48156;BME280;35568;48.104;11.782;2023-06-10T09:08:43;95117.08;;;27.74;29.11
48156;BME280;35568;48.104;11.782;2023-06-10T09:11:10;95114.14;;;27.30;29.12
48156;BME280;35568;48.104;11.782;2023-06-10T09:13:37;95111.83;;;26.90;29.50
48156;BME280;35568;48.104;11.782;2023-06-10T09:16:04;95109.08;;;26.34;30.26
48156;BME280;35568;48.104;11.782;2023-06-10T09:18:32;95111.02;;;26.02;31.17
48156;BME280;35568;48.104;11.782;2023-06-10T09:20:59;95109.05;;;26.20;30.95
48156;BME280;35568;48.104;11.782;2023-06-10T09:23:27;95107.21;;;26.44;30.98
48156;BME280;35568;48.104;11.782;2023-06-10T09:25:57;95109.63;;;27.75;30.20
48156;BME280;35568;48.104;11.782;2023-06-10T09:28:25;95103.82;;;27.74;29.20
48156;BME280;35568;48.104;11.782;2023-06-10T09:31:02;95103.83;;;27.38;29.19
48156;BME280;35568;48.104;11.782;2023-06-10T09:33:30;95103.03;;;28.17;28.61
48156;BME280;35568;48.104;11.782;2023-06-10T09:35:56;95103.14;;;28.28;28.27
48156;BME280;35568;48.104;11.782;2023-06-10T09:38:23;95110.41;;;29.26;28.33
48156;BME280;35568;48.104;11.782;2023-06-10T09:40:55;95111.83;;;29.08;27.95
48156;BME280;35568;48.104;11.782;2023-06-10T09:43:22;95113.29;;;30.04;27.04
48156;BME280;35568;48.104;11.782;2023-06-10T09:45:49;95113.20;;;29.63;27.69
48156;BME280;35568;48.104;11.782;2023-06-10T09:48:16;95116.74;;;29.29;27.62
48156;BME280;35568;48.104;11.782;2023-06-10T09:50:44;95115.74;;;29.69;27.11
48156;BME280;35568;48.104;11.782;2023-06-10T09:53:13;95109.71;;;30.77;26.18
48156;BME280;35568;48.104;11.782;2023-06-10T09:55:41;95111.94;;;31.10;25.88
48156;BME280;35568;48.104;11.782;2023-06-10T09:58:08;95113.21;;;31.67;25.12
48156;BME280;35568;48.104;11.782;2023-06-10T10:00:35;95112.92;;;31.61;25.24
48156;BME280;35568;48.104;11.782;2023-06-10T10:03:02;95114.24;;;31.91;25.08
48156;BME280;35568;48.104;11.782;2023-06-10T10:05:29;95115.85;;;32.22;25.03
48156;BME280;35568;48.104;11.782;2023-06-10T10:07:56;95119.07;;;31.75;24.96
48156;BME280;35568;48.104;11.782;2023-06-10T10:10:23;95115.98;;;30.52;25.64
48156;BME280;35568;48.104;11.782;2023-06-10T10:12:54;95118.88;;;29.48;26.78
48156;BME280;35568;48.104;11.782;2023-06-10T10:15:21;95116.42;;;28.69;27.51
48156;BME280;35568;48.104;11.782;2023-06-10T10:17:54;95119.88;;;28.82;27.54
48156;BME280;35568;48.104;11.782;2023-06-10T10:20:27;95114.55;;;29.78;26.83
48156;BME280;35568;48.104;11.782;2023-06-10T10:22:57;95119.73;;;30.02;26.43
48156;BME280;35568;48.104;11.782;2023-06-10T10:25:28;95120.46;;;31.10;26.08
48156;BME280;35568;48.104;11.782;2023-06-10T10:27:57;95118.01;;;31.53;24.43
48156;BME280;35568;48.104;11.782;2023-06-10T10:30:25;95116.41;;;32.16;24.06
48156;BME280;35568;48.104;11.782;2023-06-10T10:32:57;95116.02;;;32.08;23.82
48156;BME280;35568;48.104;11.782;2023-06-10T10:35:26;95110.62;;;32.09;23.52
48156;BME280;35568;48.104;11.782;2023-06-10T10:37:54;95108.02;;;33.06;22.79
48156;BME280;35568;48.104;11.782;2023-06-10T10:40:22;95110.91;;;31.85;23.10
48156;BME280;35568;48.104;11.782;2023-06-10T10:42:51;95105.87;;;31.58;23.33
48156;BME280;35568;48.104;11.782;2023-06-10T10:45:18;95107.54;;;32.31;23.19
48156;BME280;35568;48.104;11.782;2023-06-10T10:47:45;95103.60;;;33.37;22.29
48156;BME280;35568;48.104;11.782;2023-06-10T10:50:15;95105.16;;;34.09;21.01
48156;BME280;35568;48.104;11.782;2023-06-10T10:52:53;95100.21;;;33.68;21.23
48156;BME280;35568;48.104;11.782;2023-06-10T10:55:21;95104.18;;;34.12;20.93
48156;BME280;35568;48.104;11.782;2023-06-10T10:57:54;95100.92;;;32.28;21.89
48156;BME280;35568;48.104;11.782;2023-06-10T11:00:28;95104.39;;;33.26;21.68
48156;BME280;35568;48.104;11.782;2023-06-10T11:02:58;95099.95;;;33.64;20.88
48156;BME280;35568;48.104;11.782;2023-06-10T11:05:42;95100.98;;;34.10;20.58
48156;BME280;35568;48.104;11.782;2023-06-10T11:08:11;95102.08;;;32.53;21.71
48156;BME280;35568;48.104;11.782;2023-06-10T11:10:38;95097.89;;;33.02;21.22
48156;BME280;35568;48.104;11.782;2023-06-10T11:13:10;95100.70;;;33.79;20.19
48156;BME280;35568;48.104;11.782;2023-06-10T11:15:43;95096.35;;;33.91;20.00
48156;BME280;35568;48.104;11.782;2023-06-10T11:18:13;95092.98;;;34.41;19.59
48156;BME280;35568;48.104;11.782;2023-06-10T11:20:59;95083.63;;;34.33;19.45
48156;BME280;35568;48.104;11.782;2023-06-10T11:23:33;95086.77;;;35.86;18.83
48156;BME280;35568;48.104;11.782;2023-06-10T11:26:18;95092.82;;;34.58;19.90
48156;BME280;35568;48.104;11.782;2023-06-10T11:29:16;95092.50;;;33.19;20.36
48156;BME280;35568;48.104;11.782;2023-06-10T11:31:45;95090.08;;;31.51;22.08
48156;BME280;35568;48.104;11.782;2023-06-10T11:34:13;95091.03;;;31.89;22.50
48156;BME280;35568;48.104;11.782;2023-06-10T11:36:42;95087.94;;;32.64;21.76
48156;BME280;35568;48.104;11.782;2023-06-10T11:39:10;95084.93;;;32.35;22.01
48156;BME280;35568;48.104;11.782;2023-06-10T11:41:38;95082.03;;;32.96;21.18
48156;BME280;35568;48.104;11.782;2023-06-10T11:44:09;95082.72;;;32.43;21.86
48156;BME280;35568;48.104;11.782;2023-06-10T11:46:37;95082.94;;;32.95;21.61
48156;BME280;35568;48.104;11.782;2023-06-10T11:49:05;95088.62;;;33.29;21.11
48156;BME280;35568;48.104;11.782;2023-06-10T11:51:34;95074.80;;;33.52;20.76
48156;BME280;35568;48.104;11.782;2023-06-10T11:54:02;95081.52;;;32.56;22.33
48156;BME280;35568;48.104;11.782;2023-06-10T11:56:30;95080.99;;;32.34;22.23
48156;BME280;35568;48.104;11.782;2023-06-10T11:58:59;95080.75;;;33.13;21.45
48156;BME280;35568;48.104;11.782;2023-06-10T12:01:27;95078.94;;;33.81;20.81
48156;BME280;35568;48.104;11.782;2023-06-10T12:03:59;95072.50;;;33.96;20.25
48156;BME280;35568;48.104;11.782;2023-06-10T12:06:37;95073.57;;;34.19;20.41
48156;BME280;35568;48.104;11.782;2023-06-10T12:09:16;95069.54;;;35.07;19.98
48156;BME280;35568;48.104;11.782;2023-06-10T12:11:44;95060.82;;;35.56;19.31
48156;BME280;35568;48.104;11.782;2023-06-10T12:14:13;95062.89;;;36.23;18.97
48156;BME280;35568;48.104;11.782;2023-06-10T12:16:41;95056.49;;;36.81;18.87
48156;BME280;35568;48.104;11.782;2023-06-10T12:19:16;95060.16;;;36.18;18.67
48156;BME280;35568;48.104;11.782;2023-06-10T12:21:45;95068.49;;;34.66;20.17
48156;BME280;35568;48.104;11.782;2023-06-10T12:24:14;95066.01;;;32.95;21.46
48156;BME280;35568;48.104;11.782;2023-06-10T12:26:44;95071.41;;;32.21;22.51
48156;BME280;35568;48.104;11.782;2023-06-10T12:29:18;95073.56;;;31.65;23.78
48156;BME280;35568;48.104;11.782;2023-06-10T12:31:56;95074.26;;;31.10;24.16
48156;BME280;35568;48.104;11.782;2023-06-10T12:34:36;95076.18;;;31.08;24.61
48156;BME280;35568;48.104;11.782;2023-06-10T12:37:05;95078.85;;;29.85;25.42
48156;BME280;35568;48.104;11.782;2023-06-10T12:39:35;95079.67;;;29.56;26.23
48156;BME280;35568;48.104;11.782;2023-06-10T12:42:06;95076.07;;;29.35;26.39
48156;BME280;35568;48.104;11.782;2023-06-10T12:44:34;95076.56;;;28.85;26.76
48156;BME280;35568;48.104;11.782;2023-06-10T12:47:07;95075.79;;;28.65;27.76
48156;BME280;35568;48.104;11.782;2023-06-10T12:49:35;95074.18;;;28.55;28.64
48156;BME280;35568;48.104;11.782;2023-06-10T12:52:03;95071.73;;;29.47;27.84
48156;BME280;35568;48.104;11.782;2023-06-10T12:54:30;95070.27;;;29.53;27.55
48156;BME280;35568;48.104;11.782;2023-06-10T12:56:58;95074.27;;;29.79;27.32